Private Wetterstation Wechselburg
Wetterdaten: Woche 22.04.13 - 28.04.13 (KW17)
Datum Zeit Temp. +2m Bodentemp. Temp.+5cm Temp. Wind Windchill X Diff Temp. Feuchte +2m Feuchte +5cm Sonnenschein Luftdruck Regen Wind Richtung Sonnenschein UV Taupunkt Windchill Windben
22.04.2013 00:00 8,6 C 18,6 C 8,8 C 8,5 C 8,3 C 0,1 C 82 % 84 % 0 % 1015,9 hPa 0,0 l/m 0,1 km/h (0 Bft) N 0,00 h 0,0 UV-I 5,6 C 8,3 C 0,2 km/h (0 Bft)
22.04.2013 01:00 8,4 C 18,5 C 9,3 C 9,3 C 9,3 C 0,9 C 84 % 85 % 0 % 1015,8 hPa 0,0 l/m 0,1 km/h (0 Bft) N 0,00 h 0,0 UV-I 5,8 C 9,3 C 0,3 km/h (0 Bft)
22.04.2013 02:00 8,4 C 18,4 C 9,2 C 9,0 C 9,0 C 0,6 C 84 % 85 % 0 % 1015,6 hPa 0,0 l/m 0,2 km/h (0 Bft) N 0,00 h 0,0 UV-I 5,9 C 9,0 C 0,4 km/h (0 Bft)
22.04.2013 03:00 7,7 C 18,2 C 8,1 C 7,6 C 7,5 C 0,0 C 84 % 86 % 0 % 1015,6 hPa 0,0 l/m 0,2 km/h (0 Bft) N 0,00 h 0,0 UV-I 5,2 C 7,5 C 0,4 km/h (0 Bft)
22.04.2013 04:00 7,5 C 18,1 C 8,6 C 8,5 C 8,5 C 1,0 C 86 % 87 % 0 % 1015,5 hPa 0,0 l/m 0,4 km/h (0 Bft) S 0,00 h 0,0 UV-I 5,3 C 8,5 C 1,1 km/h (1 Bft)
22.04.2013 05:00 8,0 C 18,0 C 8,7 C 8,5 C 8,5 C 0,5 C 86 % 87 % 0 % 1015,3 hPa 0,0 l/m 0,6 km/h (0 Bft) SO 0,00 h 0,0 UV-I 5,8 C 8,5 C 0,7 km/h (0 Bft)
22.04.2013 06:00 7,7 C 17,8 C 8,4 C 8,2 C 8,2 C 0,5 C 86 % 88 % 13 % 1015,5 hPa 0,0 l/m 0,0 km/h (0 Bft) N 0,43 h 0,0 UV-I 5,6 C 8,2 C 0,0 km/h (0 Bft)
22.04.2013 07:00 8,4 C 17,8 C 9,8 C 10,6 C 10,6 C 2,1 C 87 % 87 % 56 % 1015,5 hPa 0,0 l/m 0,5 km/h (0 Bft) N 0,73 h 0,0 UV-I 6,3 C 10,6 C 0,6 km/h (0 Bft)
22.04.2013 08:00 10,3 C 17,4 C 11,8 C 13,7 C 13,7 C 3,4 C 84 % 84 % 86 % 1016,0 hPa 0,0 l/m 1,7 km/h (1 Bft) W-SW 0,58 h 0,1 UV-I 7,6 C 13,7 C 4,2 km/h (1 Bft)
22.04.2013 09:00 11,4 C 17,3 C 11,9 C 12,4 C 12,4 C 1,0 C 79 % 81 % 27 % 1016,9 hPa 0,0 l/m 3,3 km/h (1 Bft) S-SW 0,00 h 0,0 UV-I 7,9 C 12,4 C 3,7 km/h (1 Bft)
22.04.2013 10:00 11,1 C 17,5 C 11,3 C 11,4 C 11,4 C 0,3 C 79 % 82 % 8 % 1016,6 hPa 0,0 l/m 1,8 km/h (1 Bft) SW 0,00 h 0,0 UV-I 7,7 C 11,4 C 2,0 km/h (1 Bft)
22.04.2013 11:00 10,6 C 17,7 C 10,9 C 10,7 C 10,7 C 0,1 C 82 % 85 % 4 % 1017,0 hPa 0,0 l/m 0,6 km/h (0 Bft) W-SW 0,00 h 0,1 UV-I 7,6 C 10,7 C 1,2 km/h (1 Bft)
22.04.2013 12:00 10,6 C 17,7 C 11,7 C 11,7 C 11,7 C 1,1 C 84 % 88 % 29 % 1017,2 hPa 0,0 l/m 1,3 km/h (1 Bft) W-SW 0,00 h 0,5 UV-I 8,0 C 11,7 C 1,3 km/h (1 Bft)
22.04.2013 13:00 13,9 C 17,3 C 16,5 C 19,1 C 19,1 C 5,2 C 75 % 84 % 100 % 1016,9 hPa 0,0 l/m 2,3 km/h (1 Bft) SW 1,23 h 2,6 UV-I 9,6 C 19,1 C 2,8 km/h (1 Bft)
22.04.2013 14:00 16,7 C 17,3 C 18,4 C 21,5 C 21,5 C 4,8 C 65 % 68 % 100 % 1016,6 hPa 0,0 l/m 4,4 km/h (1 Bft) W-SW 1,00 h 2,7 UV-I 10,0 C 21,5 C 5,5 km/h (1 Bft)
22.04.2013 15:00 17,9 C 17,6 C 18,1 C 21,8 C 21,8 C 3,9 C 60 % 65 % 99 % 1016,3 hPa 0,0 l/m 5,3 km/h (1 Bft) W-SW 1,00 h 1,8 UV-I 10,0 C 21,8 C 6,6 km/h (2 Bft)
22.04.2013 16:00 18,5 C 18,0 C 18,5 C 21,7 C 21,7 C 3,2 C 57 % 61 % 85 % 1016,1 hPa 0,0 l/m 5,1 km/h (1 Bft) W-SW 0,50 h 0,8 UV-I 9,7 C 21,7 C 7,7 km/h (2 Bft)
22.04.2013 17:00 17,4 C 18,2 C 17,9 C 20,2 C 20,2 C 2,8 C 58 % 60 % 73 % 1016,1 hPa 0,0 l/m 5,2 km/h (1 Bft) S 0,17 h 0,3 UV-I 9,0 C 20,2 C 9,4 km/h (2 Bft)
22.04.2013 18:00 16,1 C 18,4 C 15,9 C 17,6 C 17,6 C 1,5 C 59 % 63 % 39 % 1016,6 hPa 0,0 l/m 2,9 km/h (1 Bft) S 0,00 h 0,1 UV-I 8,2 C 17,6 C 2,6 km/h (1 Bft)
22.04.2013 19:00 14,6 C 18,5 C 14,3 C 14,9 C 14,9 C 0,3 C 62 % 67 % 9 % 1017,4 hPa 0,0 l/m 1,9 km/h (1 Bft) W-SW 0,00 h 0,0 UV-I 7,4 C 14,9 C 2,5 km/h (1 Bft)
22.04.2013 20:00 13,2 C 18,6 C 12,8 C 12,9 C 12,5 C 0,0 C 64 % 69 % 0 % 1017,8 hPa 0,0 l/m 0,7 km/h (0 Bft) W-SW 0,00 h 0,0 UV-I 6,6 C 12,5 C 1,2 km/h (1 Bft)
22.04.2013 21:00 11,8 C 18,6 C 11,2 C 11,5 C 10,8 C 0,0 C 69 % 74 % 0 % 1018,4 hPa 0,0 l/m 0,2 km/h (0 Bft) N 0,00 h 0,0 UV-I 6,3 C 10,8 C 0,2 km/h (0 Bft)
22.04.2013 22:00 11,2 C 18,6 C 11,1 C 11,1 C 11,0 C 0,0 C 73 % 77 % 0 % 1019,0 hPa 0,0 l/m 0,1 km/h (0 Bft) N 0,00 h 0,0 UV-I 6,5 C 11,0 C 0,1 km/h (0 Bft)
22.04.2013 23:00 11,0 C 18,5 C 11,0 C 11,0 C 10,9 C 0,0 C 75 % 79 % 0 % 1019,0 hPa 0,0 l/m 0,0 km/h (0 Bft) N 0,00 h 0,0 UV-I 6,8 C 10,9 C 0,0 km/h (0 Bft)
23.04.2013 00:00 10,9 C 18,5 C 10,8 C 10,8 C 10,7 C 0,0 C 77 % 80 % 0 % 1018,9 hPa 0,0 l/m 0,0 km/h (0 Bft) N 0,00 h 0,0 UV-I 7,0 C 10,7 C 0,0 km/h (0 Bft)
23.04.2013 01:00 10,4 C 18,4 C 10,3 C 10,3 C 10,1 C 0,0 C 78 % 82 % 0 % 1018,7 hPa 0,0 l/m 0,0 km/h (0 Bft) N 0,00 h 0,0 UV-I 6,8 C 10,1 C 0,0 km/h (0 Bft)
23.04.2013 02:00 9,3 C 18,4 C 9,4 C 9,2 C 9,0 C 0,0 C 80 % 83 % 0 % 1018,8 hPa 0,0 l/m 0,0 km/h (0 Bft) N 0,00 h 0,0 UV-I 6,1 C 9,0 C 0,0 km/h (0 Bft)
23.04.2013 03:00 8,7 C 18,3 C 9,4 C 9,3 C 9,3 C 0,6 C 83 % 85 % 0 % 1019,1 hPa 0,0 l/m 0,0 km/h (0 Bft) N 0,00 h 0,0 UV-I 6,0 C 9,3 C 0,0 km/h (0 Bft)
23.04.2013 04:00 8,7 C 18,2 C 9,3 C 9,2 C 9,2 C 0,6 C 83 % 85 % 0 % 1018,8 hPa 0,0 l/m 0,0 km/h (0 Bft) N 0,00 h 0,0 UV-I 6,0 C 9,2 C 0,0 km/h (0 Bft)
23.04.2013 05:00 8,2 C 18,2 C 8,5 C 8,3 C 8,2 C 0,1 C 84 % 86 % 0 % 1018,6 hPa 0,0 l/m 0,0 km/h (0 Bft) N 0,00 h 0,0 UV-I 5,7 C 8,2 C 0,0 km/h (0 Bft)
23.04.2013 06:00 8,0 C 18,1 C 8,6 C 8,6 C 8,6 C 0,6 C 85 % 87 % 13 % 1019,1 hPa 0,0 l/m 0,0 km/h (0 Bft) N 0,42 h 0,0 UV-I 5,6 C 8,6 C 0,0 km/h (0 Bft)
23.04.2013 07:00 8,9 C 17,8 C 10,0 C 10,7 C 10,7 C 1,8 C 85 % 86 % 47 % 1019,5 hPa 0,0 l/m 1,1 km/h (0 Bft) S-SW 0,00 h 0,0 UV-I 6,5 C 10,7 C 2,8 km/h (1 Bft)
23.04.2013 08:00 11,6 C 17,5 C 12,2 C 13,9 C 13,9 C 2,3 C 78 % 80 % 61 % 1019,6 hPa 0,0 l/m 2,4 km/h (1 Bft) W-SW 0,00 h 0,3 UV-I 7,8 C 13,9 C 4,0 km/h (1 Bft)
23.04.2013 09:00 13,4 C 17,3 C 14,2 C 16,1 C 16,1 C 2,7 C 71 % 73 % 71 % 1020,3 hPa 0,0 l/m 6,4 km/h (2 Bft) W-SW 0,08 h 1,1 UV-I 8,2 C 16,1 C 10,9 km/h (2 Bft)
23.04.2013 10:00 14,8 C 17,3 C 16,0 C 17,2 C 17,1 C 2,4 C 60 % 61 % 63 % 1020,2 hPa 0,0 l/m 10,4 km/h (2 Bft) W-SW 0,00 h 1,8 UV-I 7,1 C 17,1 C 12,6 km/h (3 Bft)
23.04.2013 11:00 15,7 C 17,4 C 17,9 C 17,6 C 17,6 C 1,9 C 52 % 51 % 51 % 1020,5 hPa 0,0 l/m 13,0 km/h (3 Bft) W-SW 0,00 h 2,6 UV-I 5,9 C 17,6 C 17,7 km/h (3 Bft)
23.04.2013 12:00 16,3 C 17,6 C 18,7 C 18,8 C 18,7 C 2,4 C 49 % 47 % 64 % 1020,7 hPa 0,0 l/m 14,9 km/h (3 Bft) W-SW 0,00 h 3,5 UV-I 5,6 C 18,7 C 19,2 km/h (3 Bft)
23.04.2013 13:00 17,6 C 17,8 C 21,1 C 20,7 C 20,7 C 3,1 C 45 % 41 % 82 % 1020,3 hPa 0,0 l/m 12,9 km/h (3 Bft) W-SW 0,33 h 4,9 UV-I 5,5 C 20,7 C 18,9 km/h (3 Bft)
23.04.2013 14:00 18,6 C 18,0 C 20,6 C 21,2 C 21,2 C 2,6 C 39 % 38 % 69 % 1020,2 hPa 0,0 l/m 15,2 km/h (3 Bft) W-SW 0,00 h 4,4 UV-I 4,3 C 21,2 C 18,8 km/h (3 Bft)
23.04.2013 15:00 19,3 C 18,3 C 19,6 C 22,1 C 22,1 C 2,9 C 38 % 40 % 76 % 1020,2 hPa 0,0 l/m 11,9 km/h (2 Bft) W-SW 0,08 h 3,2 UV-I 4,4 C 22,1 C 15,1 km/h (3 Bft)
23.04.2013 16:00 19,5 C 18,7 C 19,8 C 21,9 C 21,9 C 2,4 C 35 % 38 % 63 % 1020,1 hPa 0,0 l/m 11,8 km/h (2 Bft) W-SW 0,00 h 1,5 UV-I 3,7 C 21,9 C 13,2 km/h (3 Bft)
23.04.2013 17:00 19,5 C 19,1 C 20,0 C 21,8 C 21,8 C 2,3 C 36 % 38 % 60 % 1020,5 hPa 0,0 l/m 10,3 km/h (2 Bft) W-SW 0,00 h 0,7 UV-I 3,9 C 21,8 C 12,1 km/h (2 Bft)
23.04.2013 18:00 18,6 C 19,2 C 18,6 C 19,4 C 19,4 C 0,8 C 38 % 42 % 20 % 1020,7 hPa 0,0 l/m 7,8 km/h (2 Bft) W-SW 0,00 h 0,2 UV-I 4,2 C 19,4 C 9,4 km/h (2 Bft)
23.04.2013 19:00 17,0 C 19,2 C 16,8 C 17,1 C 17,1 C 0,1 C 50 % 53 % 2 % 1021,3 hPa 0,0 l/m 5,1 km/h (1 Bft) SW 0,00 h 0,0 UV-I 6,5 C 17,1 C 6,3 km/h (2 Bft)
23.04.2013 20:00 15,7 C 19,2 C 14,9 C 15,4 C 14,7 C 0,0 C 54 % 59 % 0 % 1021,7 hPa 0,0 l/m 3,0 km/h (1 Bft) W-SW 0,00 h 0,0 UV-I 6,3 C 14,7 C 3,6 km/h (1 Bft)
23.04.2013 21:00 13,3 C 19,2 C 12,1 C 12,8 C 11,7 C 0,0 C 61 % 67 % 0 % 1022,9 hPa 0,0 l/m 0,0 km/h (0 Bft) N 0,00 h 0,0 UV-I 6,0 C 11,7 C 0,0 km/h (0 Bft)
23.04.2013 22:00 12,1 C 19,2 C 11,9 C 12,0 C 11,8 C 0,0 C 67 % 72 % 0 % 1023,6 hPa 0,0 l/m 0,1 km/h (0 Bft) N 0,00 h 0,0 UV-I 6,2 C 11,8 C 0,2 km/h (0 Bft)
23.04.2013 23:00 12,7 C 19,0 C 12,6 C 12,8 C 12,8 C 0,1 C 69 % 72 % 0 % 1024,3 hPa 0,0 l/m 0,6 km/h (0 Bft) O-NO 0,00 h 0,0 UV-I 7,1 C 12,8 C 0,7 km/h (0 Bft)
24.04.2013 00:00 12,5 C 18,9 C 12,1 C 12,4 C 12,2 C 0,0 C 70 % 74 % 0 % 1025,0 hPa 0,0 l/m 0,0 km/h (0 Bft) N 0,00 h 0,0 UV-I 7,2 C 12,2 C 0,0 km/h (0 Bft)
24.04.2013 01:00 10,7 C 19,2 C 10,1 C 10,3 C 9,3 C 0,0 C 75 % 79 % 0 % 1025,1 hPa 0,0 l/m 0,0 km/h (0 Bft) N 0,00 h 0,0 UV-I 6,5 C 9,3 C 0,0 km/h (0 Bft)
24.04.2013 02:00 8,8 C 19,1 C 9,0 C 8,5 C 8,0 C 0,0 C 80 % 82 % 0 % 1025,1 hPa 0,0 l/m 0,0 km/h (0 Bft) N 0,00 h 0,0 UV-I 5,5 C 8,0 C 0,0 km/h (0 Bft)
24.04.2013 03:00 8,0 C 18,9 C 9,0 C 8,6 C 8,5 C 0,5 C 83 % 84 % 0 % 1025,6 hPa 0,0 l/m 0,0 km/h (0 Bft) N 0,00 h 0,0 UV-I 5,3 C 8,5 C 0,0 km/h (0 Bft)
24.04.2013 04:00 8,2 C 18,7 C 9,3 C 9,1 C 9,1 C 0,8 C 84 % 84 % 0 % 1025,9 hPa 0,0 l/m 0,0 km/h (0 Bft) N 0,00 h 0,0 UV-I 5,6 C 9,1 C 0,0 km/h (0 Bft)
24.04.2013 05:00 8,6 C 18,6 C 9,7 C 9,8 C 9,8 C 1,1 C 84 % 85 % 0 % 1026,3 hPa 0,0 l/m 0,1 km/h (0 Bft) N 0,00 h 0,0 UV-I 6,1 C 9,8 C 0,3 km/h (0 Bft)
24.04.2013 06:00 9,1 C 18,5 C 9,9 C 10,1 C 10,1 C 0,9 C 83 % 85 % 19 % 1026,3 hPa 0,0 l/m 0,0 km/h (0 Bft) N 0,50 h 0,0 UV-I 6,4 C 10,1 C 0,0 km/h (0 Bft)
24.04.2013 07:00 9,7 C 18,4 C 11,0 C 12,4 C 12,4 C 2,7 C 83 % 84 % 65 % 1026,4 hPa 0,0 l/m 0,2 km/h (0 Bft) N 0,50 h 0,1 UV-I 6,9 C 12,4 C 0,6 km/h (0 Bft)
24.04.2013 08:00 11,8 C 18,1 C 13,0 C 15,8 C 15,8 C 3,9 C 78 % 79 % 96 % 1026,9 hPa 0,0 l/m 0,4 km/h (0 Bft) W-SW 1,00 h 0,4 UV-I 8,2 C 15,8 C 1,1 km/h (1 Bft)
24.04.2013 09:00 13,7 C 18,0 C 14,7 C 18,5 C 18,5 C 4,8 C 70 % 72 % 99 % 1027,3 hPa 0,0 l/m 4,2 km/h (1 Bft) SW 1,00 h 1,3 UV-I 8,4 C 18,5 C 5,9 km/h (2 Bft)
24.04.2013 10:00 14,7 C 18,0 C 16,0 C 18,3 C 18,3 C 3,6 C 63 % 64 % 93 % 1027,1 hPa 0,0 l/m 5,2 km/h (1 Bft) W-SW 0,75 h 2,3 UV-I 7,8 C 18,3 C 7,8 km/h (2 Bft)
24.04.2013 11:00 15,7 C 18,1 C 19,3 C 18,9 C 18,9 C 3,2 C 60 % 55 % 84 % 1027,0 hPa 0,0 l/m 5,8 km/h (2 Bft) W-SW 0,33 h 3,0 UV-I 7,9 C 18,9 C 7,4 km/h (2 Bft)
24.04.2013 12:00 16,9 C 18,3 C 21,1 C 21,2 C 21,2 C 4,3 C 57 % 51 % 91 % 1027,1 hPa 0,0 l/m 6,3 km/h (2 Bft) SW 0,60 h 4,2 UV-I 8,5 C 21,2 C 6,3 km/h (2 Bft)
24.04.2013 13:00 18,5 C 18,6 C 23,1 C 22,9 C 22,9 C 4,4 C 54 % 46 % 99 % 1026,8 hPa 0,0 l/m 6,8 km/h (2 Bft) W-SW 1,15 h 5,3 UV-I 9,0 C 22,9 C 8,6 km/h (2 Bft)
24.04.2013 14:00 19,7 C 19,0 C 22,5 C 24,0 C 24,0 C 4,3 C 50 % 47 % 100 % 1026,1 hPa 0,0 l/m 6,5 km/h (2 Bft) W-SW 1,00 h 4,8 UV-I 9,1 C 24,0 C 8,0 km/h (2 Bft)
24.04.2013 15:00 20,8 C 19,4 C 21,3 C 24,8 C 24,8 C 4,0 C 48 % 51 % 100 % 1025,6 hPa 0,0 l/m 5,7 km/h (1 Bft) SW 1,00 h 3,6 UV-I 9,5 C 24,8 C 7,8 km/h (2 Bft)
24.04.2013 16:00 21,6 C 19,8 C 21,5 C 25,1 C 25,1 C 3,5 C 47 % 51 % 92 % 1025,1 hPa 0,0 l/m 6,0 km/h (2 Bft) W-SW 0,75 h 1,8 UV-I 9,6 C 25,1 C 7,3 km/h (2 Bft)
24.04.2013 17:00 21,6 C 20,2 C 22,0 C 24,6 C 24,6 C 3,0 C 46 % 49 % 78 % 1024,6 hPa 0,0 l/m 7,5 km/h (2 Bft) W-SW 0,00 h 0,9 UV-I 9,6 C 24,6 C 10,2 km/h (2 Bft)
24.04.2013 18:00 21,5 C 20,4 C 21,0 C 23,7 C 23,7 C 2,3 C 47 % 50 % 60 % 1024,3 hPa 0,0 l/m 8,8 km/h (2 Bft) W-SW 0,00 h 0,3 UV-I 9,6 C 23,7 C 11,1 km/h (2 Bft)
24.04.2013 19:00 20,9 C 20,5 C 19,9 C 22,1 C 22,1 C 1,2 C 48 % 54 % 30 % 1024,5 hPa 0,0 l/m 4,5 km/h (1 Bft) SW 0,50 h 0,0 UV-I 9,6 C 22,1 C 5,1 km/h (1 Bft)
24.04.2013 20:00 18,1 C 20,6 C 16,5 C 17,6 C 16,7 C 0,0 C 58 % 64 % 0 % 1024,4 hPa 0,0 l/m 0,1 km/h (0 Bft) N 0,00 h 0,0 UV-I 9,7 C 16,7 C 0,0 km/h (0 Bft)
24.04.2013 21:00 14,9 C 20,7 C 13,8 C 14,3 C 13,1 C 0,0 C 68 % 73 % 0 % 1024,6 hPa 0,0 l/m 0,1 km/h (0 Bft) N 0,00 h 0,0 UV-I 9,1 C 13,1 C 0,3 km/h (0 Bft)
24.04.2013 22:00 12,7 C 20,8 C 12,1 C 12,2 C 11,1 C 0,0 C 75 % 79 % 0 % 1024,7 hPa 0,0 l/m 0,0 km/h (0 Bft) N 0,00 h 0,0 UV-I 8,4 C 11,1 C 0,0 km/h (0 Bft)
24.04.2013 23:00 11,9 C 20,6 C 11,4 C 11,6 C 11,0 C 0,0 C 78 % 81 % 0 % 1024,6 hPa 0,0 l/m 0,1 km/h (0 Bft) N 0,00 h 0,0 UV-I 8,1 C 11,0 C 0,1 km/h (0 Bft)
25.04.2013 00:00 11,8 C 20,3 C 11,1 C 11,6 C 11,2 C 0,0 C 77 % 81 % 0 % 1024,7 hPa 0,0 l/m 0,0 km/h (0 Bft) N 0,00 h 0,0 UV-I 7,9 C 11,2 C 0,0 km/h (0 Bft)
25.04.2013 01:00 11,1 C 20,2 C 10,2 C 10,8 C 10,3 C 0,0 C 77 % 82 % 0 % 1024,6 hPa 0,0 l/m 0,0 km/h (0 Bft) N 0,00 h 0,0 UV-I 7,3 C 10,3 C 0,0 km/h (0 Bft)
25.04.2013 02:00 10,6 C 20,0 C 9,8 C 10,5 C 10,1 C 0,0 C 79 % 83 % 0 % 1024,4 hPa 0,0 l/m 0,0 km/h (0 Bft) N 0,00 h 0,0 UV-I 7,1 C 10,1 C 0,0 km/h (0 Bft)
25.04.2013 03:00 10,2 C 20,0 C 9,3 C 10,0 C 9,6 C 0,0 C 79 % 84 % 0 % 1024,7 hPa 0,0 l/m 0,0 km/h (0 Bft) N 0,00 h 0,0 UV-I 6,7 C 9,6 C 0,2 km/h (0 Bft)
25.04.2013 04:00 8,6 C 19,9 C 8,5 C 8,4 C 8,2 C 0,0 C 81 % 85 % 0 % 1024,9 hPa 0,0 l/m 0,1 km/h (0 Bft) N 0,00 h 0,0 UV-I 5,6 C 8,2 C 0,1 km/h (0 Bft)
25.04.2013 05:00 7,3 C 19,7 C 7,9 C 7,3 C 7,2 C 0,0 C 84 % 86 % 0 % 1024,9 hPa 0,0 l/m 0,1 km/h (0 Bft) N 0,00 h 0,0 UV-I 4,8 C 7,2 C 0,1 km/h (0 Bft)
25.04.2013 06:00 6,7 C 19,5 C 7,7 C 6,9 C 6,9 C 0,2 C 85 % 87 % 4 % 1025,3 hPa 0,0 l/m 0,0 km/h (0 Bft) N 0,00 h 0,0 UV-I 4,4 C 6,9 C 0,0 km/h (0 Bft)
25.04.2013 07:00 8,8 C 19,2 C 11,3 C 14,9 C 14,9 C 6,0 C 87 % 84 % 100 % 1025,6 hPa 0,0 l/m 0,1 km/h (0 Bft) N 1,23 h 0,1 UV-I 6,8 C 14,9 C 0,0 km/h (0 Bft)
25.04.2013 08:00 13,7 C 18,7 C 15,2 C 22,2 C 22,2 C 8,5 C 76 % 76 % 100 % 1025,8 hPa 0,0 l/m 0,3 km/h (0 Bft) S-SO 1,00 h 0,5 UV-I 9,5 C 22,2 C 1,1 km/h (1 Bft)
25.04.2013 09:00 16,7 C 18,6 C 17,4 C 22,4 C 22,4 C 5,7 C 66 % 67 % 89 % 1026,0 hPa 0,0 l/m 3,2 km/h (1 Bft) W-SW 0,67 h 1,2 UV-I 10,2 C 22,4 C 4,5 km/h (1 Bft)
25.04.2013 10:00 17,2 C 18,7 C 18,5 C 20,0 C 20,0 C 2,8 C 64 % 64 % 75 % 1026,2 hPa 0,0 l/m 3,3 km/h (1 Bft) W-SW 0,17 h 1,8 UV-I 10,4 C 20,0 C 3,2 km/h (1 Bft)
25.04.2013 11:00 18,5 C 18,8 C 20,3 C 22,3 C 22,3 C 3,9 C 62 % 61 % 96 % 1026,0 hPa 0,0 l/m 3,2 km/h (1 Bft) SW 1,00 h 2,7 UV-I 11,0 C 22,3 C 4,2 km/h (1 Bft)
25.04.2013 12:00 19,6 C 19,0 C 21,9 C 24,7 C 24,7 C 5,1 C 59 % 58 % 100 % 1025,8 hPa 0,0 l/m 2,3 km/h (1 Bft) W 0,77 h 4,4 UV-I 11,5 C 24,7 C 2,0 km/h (1 Bft)
25.04.2013 13:00 21,6 C 19,3 C 26,4 C 27,4 C 27,4 C 5,8 C 54 % 47 % 100 % 1025,3 hPa 0,0 l/m 3,7 km/h (1 Bft) W-SW 1,23 h 6,2 UV-I 11,8 C 27,4 C 6,7 km/h (2 Bft)
25.04.2013 14:00 22,3 C 19,7 C 25,2 C 26,7 C 26,7 C 4,4 C 51 % 47 % 99 % 1024,5 hPa 0,0 l/m 4,1 km/h (1 Bft) SW 1,00 h 4,8 UV-I 11,7 C 26,7 C 6,0 km/h (2 Bft)
25.04.2013 15:00 23,7 C 20,2 C 24,4 C 28,5 C 28,5 C 4,8 C 46 % 47 % 99 % 1023,8 hPa 0,0 l/m 4,1 km/h (1 Bft) W-SW 1,00 h 4,1 UV-I 11,2 C 28,5 C 6,3 km/h (2 Bft)
25.04.2013 16:00 24,3 C 20,7 C 24,0 C 28,6 C 28,6 C 4,3 C 43 % 46 % 100 % 1023,1 hPa 0,0 l/m 4,5 km/h (1 Bft) W 1,00 h 1,9 UV-I 10,8 C 28,6 C 5,2 km/h (1 Bft)
25.04.2013 17:00 23,6 C 21,1 C 23,3 C 26,6 C 26,6 C 3,0 C 45 % 48 % 77 % 1022,7 hPa 0,0 l/m 1,4 km/h (1 Bft) NO 0,33 h 0,9 UV-I 10,8 C 26,6 C 1,5 km/h (1 Bft)
25.04.2013 18:00 22,7 C 21,3 C 22,1 C 25,6 C 25,6 C 3,0 C 47 % 50 % 75 % 1022,3 hPa 0,0 l/m 1,3 km/h (1 Bft) NO 0,43 h 0,3 UV-I 10,6 C 25,6 C 1,5 km/h (1 Bft)
25.04.2013 19:00 22,0 C 21,5 C 21,0 C 23,9 C 23,9 C 2,0 C 48 % 52 % 52 % 1021,6 hPa 0,0 l/m 1,2 km/h (1 Bft) O-NO 1,07 h 0,0 UV-I 10,4 C 23,9 C 1,7 km/h (1 Bft)
25.04.2013 20:00 19,7 C 21,6 C 18,1 C 19,4 C 18,7 C 0,0 C 57 % 63 % 0 % 1021,1 hPa 0,0 l/m 0,5 km/h (0 Bft) N-NO 0,00 h 0,0 UV-I 11,0 C 18,7 C 0,4 km/h (0 Bft)
25.04.2013 21:00 17,4 C 21,7 C 16,3 C 16,9 C 16,0 C 0,0 C 66 % 72 % 0 % 1020,9 hPa 0,0 l/m 0,1 km/h (0 Bft) N 0,00 h 0,0 UV-I 11,0 C 16,0 C 0,1 km/h (0 Bft)
25.04.2013 22:00 15,5 C 21,8 C 14,5 C 15,0 C 14,1 C 0,0 C 73 % 77 % 0 % 1020,7 hPa 0,0 l/m 0,1 km/h (0 Bft) N 0,00 h 0,0 UV-I 10,7 C 14,1 C 0,0 km/h (0 Bft)
25.04.2013 23:00 13,6 C 21,9 C 13,0 C 13,2 C 12,4 C 0,0 C 78 % 81 % 0 % 1019,7 hPa 0,0 l/m 0,0 km/h (0 Bft) N 0,00 h 0,0 UV-I 9,8 C 12,4 C 0,0 km/h (0 Bft)
26.04.2013 00:00 11,8 C 21,8 C 11,9 C 11,6 C 11,2 C 0,0 C 81 % 84 % 0 % 1019,4 hPa 0,0 l/m 0,0 km/h (0 Bft) N 0,00 h 0,0 UV-I 8,7 C 11,2 C 0,0 km/h (0 Bft)
26.04.2013 01:00 10,2 C 21,5 C 10,8 C 10,1 C 9,9 C 0,0 C 84 % 86 % 0 % 1018,5 hPa 0,0 l/m 0,0 km/h (0 Bft) N 0,00 h 0,0 UV-I 7,6 C 9,9 C 0,0 km/h (0 Bft)
26.04.2013 02:00 9,3 C 21,3 C 10,0 C 9,2 C 9,2 C 0,0 C 85 % 87 % 0 % 1017,6 hPa 0,0 l/m 0,0 km/h (0 Bft) N 0,00 h 0,0 UV-I 7,0 C 9,2 C 0,0 km/h (0 Bft)
26.04.2013 03:00 8,6 C 21,1 C 9,5 C 8,7 C 8,7 C 0,1 C 87 % 87 % 0 % 1016,8 hPa 0,0 l/m 0,0 km/h (0 Bft) N 0,00 h 0,0 UV-I 6,6 C 8,7 C 0,0 km/h (0 Bft)
26.04.2013 04:00 8,0 C 20,8 C 8,9 C 8,1 C 8,1 C 0,1 C 88 % 88 % 0 % 1016,0 hPa 0,0 l/m 0,0 km/h (0 Bft) N 0,00 h 0,0 UV-I 6,1 C 8,1 C 0,0 km/h (0 Bft)
26.04.2013 05:00 7,5 C 20,6 C 8,5 C 7,8 C 7,8 C 0,3 C 88 % 88 % 0 % 1015,4 hPa 0,0 l/m 0,0 km/h (0 Bft) N 0,00 h 0,0 UV-I 5,7 C 7,8 C 0,0 km/h (0 Bft)
26.04.2013 06:00 7,4 C 20,4 C 8,6 C 8,0 C 8,0 C 0,7 C 88 % 88 % 16 % 1015,1 hPa 0,0 l/m 0,0 km/h (0 Bft) N 0,33 h 0,0 UV-I 5,6 C 8,0 C 0,0 km/h (0 Bft)
26.04.2013 07:00 10,0 C 20,1 C 13,2 C 16,7 C 16,7 C 6,7 C 91 % 85 % 100 % 1014,7 hPa 0,0 l/m 0,0 km/h (0 Bft) N 1,23 h 0,1 UV-I 8,6 C 16,7 C 0,0 km/h (0 Bft)
26.04.2013 08:00 15,6 C 19,6 C 16,6 C 23,2 C 23,2 C 7,6 C 78 % 77 % 100 % 1014,1 hPa 0,0 l/m 1,0 km/h (0 Bft) W-SW 1,00 h 0,5 UV-I 11,6 C 23,2 C 2,1 km/h (1 Bft)
26.04.2013 09:00 20,0 C 19,5 C 19,2 C 24,7 C 24,7 C 4,7 C 59 % 63 % 95 % 1013,8 hPa 0,0 l/m 4,5 km/h (1 Bft) W-SW 0,83 h 1,5 UV-I 11,7 C 24,7 C 8,6 km/h (2 Bft)
26.04.2013 10:00 21,0 C 19,6 C 20,9 C 23,6 C 23,6 C 2,6 C 54 % 58 % 68 % 1013,4 hPa 0,0 l/m 8,6 km/h (2 Bft) SW 0,00 h 2,2 UV-I 11,4 C 23,6 C 8,9 km/h (2 Bft)
26.04.2013 11:00 22,1 C 19,8 C 24,5 C 24,6 C 24,6 C 2,5 C 51 % 49 % 66 % 1012,6 hPa 0,0 l/m 5,7 km/h (1 Bft) W-SW 0,00 h 2,9 UV-I 11,5 C 24,6 C 7,0 km/h (2 Bft)
26.04.2013 12:00 23,1 C 20,0 C 26,3 C 26,1 C 26,1 C 3,1 C 47 % 43 % 80 % 1011,8 hPa 0,0 l/m 7,9 km/h (2 Bft) W-SW 0,43 h 4,2 UV-I 11,1 C 26,1 C 9,3 km/h (2 Bft)
26.04.2013 13:00 24,7 C 20,4 C 27,1 C 27,8 C 27,8 C 3,2 C 43 % 40 % 80 % 1010,5 hPa 0,0 l/m 3,5 km/h (1 Bft) SW 0,73 h 3,7 UV-I 11,1 C 27,8 C 5,2 km/h (1 Bft)
26.04.2013 14:00 25,2 C 20,8 C 27,0 C 27,8 C 27,8 C 2,6 C 38 % 38 % 69 % 1009,1 hPa 0,0 l/m 10,0 km/h (2 Bft) W-SW 0,08 h 4,4 UV-I 9,8 C 27,8 C 13,1 km/h (3 Bft)
26.04.2013 15:00 25,2 C 21,2 C 26,0 C 27,3 C 27,3 C 2,1 C 37 % 38 % 55 % 1008,5 hPa 0,0 l/m 11,7 km/h (2 Bft) W-SW 0,00 h 2,6 UV-I 9,5 C 27,3 C 16,3 km/h (3 Bft)
26.04.2013 16:00 24,5 C 21,5 C 24,9 C 25,6 C 25,6 C 1,1 C 40 % 42 % 29 % 1007,9 hPa 0,0 l/m 8,9 km/h (2 Bft) W-SW 0,00 h 1,0 UV-I 9,9 C 25,6 C 9,9 km/h (2 Bft)
26.04.2013 17:00 23,5 C 21,7 C 23,5 C 24,1 C 24,1 C 0,6 C 43 % 45 % 15 % 1007,0 hPa 0,0 l/m 8,6 km/h (2 Bft) W-SW 0,00 h 0,4 UV-I 10,1 C 24,1 C 10,6 km/h (2 Bft)
26.04.2013 18:00 21,8 C 21,8 C 21,5 C 21,9 C 21,9 C 0,2 C 45 % 48 % 4 % 1006,6 hPa 0,0 l/m 4,3 km/h (1 Bft) S 0,00 h 0,2 UV-I 9,2 C 21,9 C 5,6 km/h (1 Bft)
26.04.2013 19:00 18,9 C 21,8 C 18,8 C 18,8 C 18,6 C 0,0 C 56 % 58 % 0 % 1006,3 hPa 0,0 l/m 1,5 km/h (1 Bft) NW 0,00 h 0,0 UV-I 9,8 C 18,6 C 1,6 km/h (1 Bft)
26.04.2013 20:00 17,4 C 21,8 C 17,3 C 17,2 C 16,9 C 0,0 C 64 % 66 % 0 % 1005,9 hPa 0,0 l/m 2,4 km/h (1 Bft) W-SW 0,00 h 0,0 UV-I 10,5 C 16,9 C 3,0 km/h (1 Bft)
26.04.2013 21:00 16,3 C 21,8 C 16,3 C 16,1 C 15,8 C 0,0 C 71 % 72 % 0 % 1005,8 hPa 0,0 l/m 1,2 km/h (1 Bft) W-SW 0,00 h 0,0 UV-I 11,0 C 15,8 C 1,1 km/h (0 Bft)
26.04.2013 22:00 15,6 C 21,8 C 15,6 C 15,4 C 15,1 C 0,0 C 75 % 76 % 0 % 1005,2 hPa 0,7 l/m 0,3 km/h (0 Bft) N 0,00 h 0,0 UV-I 11,2 C 15,1 C 0,4 km/h (0 Bft)
26.04.2013 23:00 14,5 C 22,1 C 14,8 C 14,3 C 14,0 C 0,0 C 81 % 82 % 0 % 1005,1 hPa 1,4 l/m 2,7 km/h (1 Bft) SW 0,00 h 0,0 UV-I 11,2 C 14,0 C 4,2 km/h (1 Bft)
27.04.2013 00:00 12,8 C 21,8 C 13,5 C 12,9 C 12,7 C 0,1 C 87 % 89 % 0 % 1005,6 hPa 1,4 l/m 7,4 km/h (2 Bft) W-SW 0,00 h 0,0 UV-I 10,7 C 12,7 C 7,0 km/h (2 Bft)
27.04.2013 01:00 12,4 C 21,6 C 13,2 C 12,9 C 12,9 C 0,5 C 88 % 91 % 0 % 1004,6 hPa 0,7 l/m 1,6 km/h (1 Bft) S 0,00 h 0,0 UV-I 10,5 C 12,9 C 1,9 km/h (1 Bft)
27.04.2013 02:00 10,7 C 21,4 C 11,8 C 11,2 C 11,2 C 0,6 C 87 % 91 % 0 % 1004,6 hPa 0,7 l/m 3,5 km/h (1 Bft) S 0,00 h 0,0 UV-I 8,5 C 11,2 C 5,6 km/h (1 Bft)
27.04.2013 03:00 8,2 C 21,3 C 9,8 C 8,8 C 8,8 C 0,5 C 88 % 91 % 0 % 1005,2 hPa 0,0 l/m 3,7 km/h (1 Bft) W-SW 0,00 h 0,0 UV-I 6,3 C 8,7 C 4,8 km/h (1 Bft)
27.04.2013 04:00 7,3 C 21,0 C 8,9 C 7,8 C 7,8 C 0,5 C 89 % 92 % 0 % 1006,1 hPa 0,0 l/m 3,7 km/h (1 Bft) W-SW 0,00 h 0,0 UV-I 5,5 C 7,7 C 5,1 km/h (1 Bft)
27.04.2013 05:00 6,8 C 20,7 C 8,4 C 7,5 C 7,5 C 0,8 C 90 % 92 % 0 % 1006,3 hPa 0,0 l/m 2,0 km/h (1 Bft) SW 0,00 h 0,0 UV-I 5,2 C 7,5 C 2,3 km/h (1 Bft)
27.04.2013 06:00 6,6 C 20,4 C 8,2 C 7,4 C 7,4 C 0,7 C 90 % 92 % 17 % 1006,5 hPa 0,0 l/m 1,6 km/h (1 Bft) W-SW 0,33 h 0,0 UV-I 5,1 C 7,4 C 2,6 km/h (1 Bft)
27.04.2013 07:00 6,3 C 20,2 C 7,9 C 7,1 C 7,1 C 0,9 C 90 % 92 % 23 % 1007,3 hPa 1,4 l/m 1,9 km/h (1 Bft) SW 0,00 h 0,0 UV-I 4,8 C 7,1 C 2,3 km/h (1 Bft)
27.04.2013 08:00 6,3 C 19,9 C 7,8 C 7,3 C 7,3 C 1,0 C 90 % 93 % 26 % 1007,9 hPa 0,7 l/m 1,0 km/h (0 Bft) NO 0,00 h 0,0 UV-I 4,8 C 7,3 C 1,9 km/h (1 Bft)
27.04.2013 09:00 6,3 C 19,6 C 7,9 C 7,5 C 7,5 C 1,2 C 90 % 93 % 31 % 1008,4 hPa 0,0 l/m 1,9 km/h (1 Bft) N-NW 0,00 h 0,1 UV-I 4,8 C 7,5 C 2,5 km/h (1 Bft)
27.04.2013 10:00 6,3 C 19,4 C 7,9 C 7,6 C 7,6 C 1,3 C 90 % 92 % 33 % 1008,7 hPa 0,0 l/m 2,1 km/h (1 Bft) NW 0,00 h 0,2 UV-I 4,8 C 7,6 C 2,5 km/h (1 Bft)
27.04.2013 11:00 6,3 C 19,2 C 8,0 C 7,6 C 7,6 C 1,3 C 90 % 92 % 34 % 1009,5 hPa 0,7 l/m 2,9 km/h (1 Bft) N-NW 0,00 h 0,4 UV-I 4,8 C 7,6 C 3,7 km/h (1 Bft)
27.04.2013 12:00 6,7 C 19,2 C 8,6 C 8,7 C 8,7 C 2,1 C 90 % 92 % 55 % 1009,8 hPa 0,0 l/m 2,3 km/h (1 Bft) W-SW 0,00 h 0,9 UV-I 5,1 C 8,7 C 3,2 km/h (1 Bft)
27.04.2013 13:00 6,8 C 19,0 C 8,6 C 8,8 C 8,8 C 2,0 C 89 % 92 % 53 % 1009,5 hPa 0,0 l/m 3,0 km/h (1 Bft) NW 0,00 h 0,5 UV-I 5,1 C 8,8 C 4,2 km/h (1 Bft)
27.04.2013 14:00 6,6 C 18,9 C 8,1 C 7,7 C 7,7 C 1,1 C 89 % 91 % 29 % 1009,5 hPa 0,0 l/m 3,8 km/h (1 Bft) N-NW 0,00 h 0,2 UV-I 4,9 C 7,7 C 5,2 km/h (1 Bft)
27.04.2013 15:00 6,5 C 18,9 C 7,9 C 7,7 C 7,7 C 1,2 C 90 % 92 % 32 % 1009,7 hPa 0,0 l/m 3,2 km/h (1 Bft) N-NO 0,00 h 0,2 UV-I 4,9 C 7,7 C 4,0 km/h (1 Bft)
27.04.2013 16:00 6,4 C 18,8 C 7,7 C 7,2 C 7,2 C 0,9 C 90 % 92 % 23 % 1009,6 hPa 0,7 l/m 4,1 km/h (1 Bft) N-NO 0,00 h 0,1 UV-I 4,8 C 7,1 C 5,2 km/h (1 Bft)
27.04.2013 17:00 6,2 C 18,8 C 7,4 C 6,8 C 6,8 C 0,6 C 90 % 92 % 16 % 1009,0 hPa 0,0 l/m 4,2 km/h (1 Bft) N-NW 0,00 h 0,0 UV-I 4,7 C 6,5 C 6,7 km/h (2 Bft)
27.04.2013 18:00 6,0 C 18,7 C 7,1 C 6,6 C 6,6 C 0,6 C 91 % 93 % 16 % 1009,0 hPa 0,0 l/m 3,8 km/h (1 Bft) NW 0,00 h 0,0 UV-I 4,6 C 6,6 C 4,8 km/h (1 Bft)
27.04.2013 19:00 5,9 C 18,6 C 6,9 C 6,6 C 6,6 C 0,7 C 91 % 93 % 19 % 1009,4 hPa 0,0 l/m 3,4 km/h (1 Bft) NW 0,00 h 0,0 UV-I 4,5 C 6,6 C 4,9 km/h (1 Bft)
27.04.2013 20:00 5,6 C 18,5 C 6,7 C 6,0 C 6,0 C 0,4 C 91 % 93 % 4 % 1010,1 hPa 2,1 l/m 4,3 km/h (1 Bft) N-NW 0,25 h 0,0 UV-I 4,3 C 5,7 C 5,1 km/h (1 Bft)
27.04.2013 21:00 5,4 C 18,4 C 6,4 C 5,9 C 5,9 C 0,5 C 91 % 93 % 0 % 1010,7 hPa 0,0 l/m 3,5 km/h (1 Bft) N-NW 0,00 h 0,0 UV-I 4,1 C 5,9 C 5,7 km/h (1 Bft)
27.04.2013 22:00 5,2 C 18,2 C 6,2 C 5,8 C 5,8 C 0,6 C 91 % 93 % 0 % 1011,3 hPa 0,7 l/m 2,8 km/h (1 Bft) O 0,00 h 0,0 UV-I 3,9 C 5,7 C 2,8 km/h (1 Bft)
27.04.2013 23:00 5,1 C 18,1 C 6,0 C 5,5 C 5,5 C 0,4 C 91 % 94 % 0 % 1011,9 hPa 0,7 l/m 3,6 km/h (1 Bft) N-NO 0,00 h 0,0 UV-I 3,8 C 5,3 C 4,8 km/h (1 Bft)
28.04.2013 00:00 5,0 C 18,0 C 6,0 C 5,7 C 5,7 C 0,7 C 91 % 94 % 0 % 1012,5 hPa 1,4 l/m 2,5 km/h (1 Bft) N-NO 0,00 h 0,0 UV-I 3,6 C 5,7 C 4,8 km/h (1 Bft)
28.04.2013 01:00 4,2 C 17,8 C 5,1 C 4,6 C 4,6 C 0,4 C 90 % 93 % 0 % 1012,3 hPa 0,0 l/m 3,4 km/h (1 Bft) NW 0,00 h 0,0 UV-I 2,6 C 4,5 C 5,0 km/h (1 Bft)
28.04.2013 02:00 4,0 C 17,7 C 5,1 C 4,7 C 4,7 C 0,7 C 90 % 93 % 0 % 1012,8 hPa 1,4 l/m 2,0 km/h (1 Bft) N-NO 0,00 h 0,0 UV-I 2,5 C 4,7 C 2,8 km/h (1 Bft)
28.04.2013 03:00 3,7 C 17,6 C 4,8 C 4,3 C 4,3 C 0,6 C 90 % 94 % 0 % 1013,4 hPa 0,7 l/m 1,8 km/h (1 Bft) N-NW 0,00 h 0,0 UV-I 2,3 C 4,3 C 2,6 km/h (1 Bft)
28.04.2013 04:00 3,3 C 17,5 C 4,4 C 3,8 C 3,8 C 0,5 C 89 % 94 % 0 % 1014,2 hPa 0,7 l/m 1,5 km/h (1 Bft) N-NW 0,00 h 0,0 UV-I 1,7 C 3,8 C 2,8 km/h (1 Bft)
28.04.2013 05:00 2,7 C 17,3 C 3,7 C 3,0 C 3,0 C 0,3 C 89 % 94 % 0 % 1014,8 hPa 1,4 l/m 1,9 km/h (1 Bft) N-NO 0,00 h 0,0 UV-I 1,0 C 3,0 C 3,3 km/h (1 Bft)
28.04.2013 06:00 2,3 C 17,2 C 3,5 C 2,8 C 2,8 C 0,5 C 90 % 94 % 13 % 1015,2 hPa 0,0 l/m 1,2 km/h (1 Bft) N-NW 0,17 h 0,0 UV-I 0,8 C 2,8 C 1,9 km/h (1 Bft)
28.04.2013 07:00 2,2 C 17,0 C 3,7 C 3,1 C 3,1 C 0,9 C 90 % 94 % 24 % 1016,3 hPa 0,0 l/m 0,3 km/h (0 Bft) N 0,00 h 0,0 UV-I 0,7 C 3,1 C 0,9 km/h (0 Bft)
28.04.2013 08:00 2,5 C 16,9 C 4,2 C 4,0 C 4,0 C 1,5 C 90 % 94 % 39 % 1017,1 hPa 0,0 l/m 0,3 km/h (0 Bft) N 0,00 h 0,1 UV-I 1,1 C 4,0 C 0,3 km/h (0 Bft)
28.04.2013 09:00 3,5 C 16,7 C 5,7 C 6,5 C 6,5 C 3,0 C 90 % 94 % 80 % 1017,6 hPa 0,0 l/m 0,7 km/h (0 Bft) O 0,33 h 0,5 UV-I 2,0 C 6,5 C 1,5 km/h (1 Bft)
28.04.2013 10:00 4,8 C 16,6 C 7,5 C 9,5 C 9,5 C 4,7 C 88 % 93 % 100 % 1018,0 hPa 0,0 l/m 1,4 km/h (1 Bft) O-NO 1,00 h 1,5 UV-I 3,1 C 9,5 C 2,1 km/h (1 Bft)
28.04.2013 11:00 6,6 C 16,4 C 8,9 C 11,3 C 11,3 C 4,7 C 83 % 91 % 100 % 1018,1 hPa 0,0 l/m 1,5 km/h (1 Bft) O-NO 1,00 h 2,0 UV-I 4,0 C 11,3 C 2,0 km/h (1 Bft)
28.04.2013 12:00 8,1 C 16,4 C 10,5 C 13,3 C 13,3 C 5,2 C 78 % 88 % 100 % 1018,5 hPa 0,0 l/m 1,8 km/h (1 Bft) N-NO 0,77 h 2,1 UV-I 4,5 C 13,3 C 2,7 km/h (1 Bft)
28.04.2013 13:00 9,2 C 16,6 C 12,0 C 14,3 C 14,3 C 5,1 C 73 % 80 % 100 % 1019,2 hPa 0,0 l/m 1,7 km/h (1 Bft) O-NO 1,23 h 2,8 UV-I 4,7 C 14,3 C 2,3 km/h (1 Bft)
28.04.2013 14:00 9,5 C 16,8 C 11,4 C 12,5 C 12,5 C 3,0 C 71 % 76 % 79 % 1019,2 hPa 0,0 l/m 2,5 km/h (1 Bft) N-NO 0,25 h 1,4 UV-I 4,4 C 12,5 C 3,1 km/h (1 Bft)
28.04.2013 15:00 10,0 C 17,0 C 11,5 C 12,9 C 12,9 C 2,9 C 70 % 73 % 77 % 1019,5 hPa 0,0 l/m 1,7 km/h (1 Bft) O-SO 0,25 h 1,1 UV-I 4,7 C 12,9 C 2,7 km/h (1 Bft)
28.04.2013 16:00 10,2 C 17,1 C 11,7 C 12,6 C 12,6 C 2,4 C 67 % 69 % 63 % 1019,2 hPa 0,0 l/m 2,6 km/h (1 Bft) O-SO 0,00 h 0,7 UV-I 4,3 C 12,6 C 2,4 km/h (1 Bft)
28.04.2013 17:00 10,3 C 17,2 C 11,4 C 11,9 C 11,9 C 1,6 C 68 % 69 % 43 % 1019,0 hPa 0,0 l/m 3,6 km/h (1 Bft) O-NO 0,00 h 0,3 UV-I 4,7 C 11,9 C 4,2 km/h (1 Bft)
28.04.2013 18:00 10,3 C 17,3 C 11,1 C 11,5 C 11,5 C 1,2 C 70 % 72 % 32 % 1019,0 hPa 0,0 l/m 2,9 km/h (1 Bft) O-NO 0,00 h 0,1 UV-I 5,0 C 11,5 C 3,6 km/h (1 Bft)
28.04.2013 19:00 10,1 C 17,4 C 10,4 C 10,6 C 10,6 C 0,5 C 72 % 75 % 12 % 1018,7 hPa 0,0 l/m 2,1 km/h (1 Bft) O-NO 0,00 h 0,0 UV-I 5,3 C 10,6 C 3,1 km/h (1 Bft)
28.04.2013 20:00 9,9 C 17,4 C 9,8 C 9,9 C 9,9 C 0,1 C 75 % 78 % 1 % 1018,7 hPa 0,0 l/m 0,4 km/h (0 Bft) O-SO 0,00 h 0,0 UV-I 5,6 C 9,9 C 0,5 km/h (0 Bft)
28.04.2013 21:00 9,4 C 17,4 C 9,5 C 9,5 C 9,5 C 0,1 C 79 % 82 % 0 % 1018,5 hPa 0,0 l/m 0,0 km/h (0 Bft) N 0,00 h 0,0 UV-I 5,9 C 9,5 C 0,0 km/h (0 Bft)
28.04.2013 22:00 8,8 C 17,5 C 9,2 C 9,1 C 9,1 C 0,3 C 81 % 83 % 0 % 1018,3 hPa 0,0 l/m 0,1 km/h (0 Bft) N 0,00 h 0,0 UV-I 5,8 C 9,1 C 0,1 km/h (0 Bft)
28.04.2013 23:00 8,2 C 17,5 C 8,9 C 8,8 C 8,8 C 0,6 C 83 % 86 % 0 % 1018,3 hPa 0,0 l/m 0,1 km/h (0 Bft) N 0,00 h 0,0 UV-I 5,5 C 8,8 C 0,0 km/h (0 Bft)
Min-Datum _ 28.04.13 28.04.13 28.04.13 28.04.13 28.04.13 22.04.13 23.04.13 23.04.13 22.04.13 27.04.13 - 22.04.13 - - 22.04.13 28.04.13 28.04.13 22.04.13
_ Min-Zeit 07:00 11:20 05:30 05:45 05:45 00:00 16:10 14:05 00:00 01:15 - 00:00 - - 00:00 05:50 05:45 00:00
Minimum _ 2,1 C 16,3 C 3,4 C 2,6 C 2,6 C 0,0 C 34 % 35 % 0 % 1004,4 hPa - 0,0 km/h (0 Bft) - - 0,0 UV-I 0,6 C 2,6 C 0,0 km/h (0 Bft)
Max-Datum _ 26.04.13 26.04.13 26.04.13 25.04.13 25.04.13 26.04.13 26.04.13 27.04.13 22.04.13 24.04.13 27.04.13 23.04.13 - 22.04.13 25.04.13 25.04.13 25.04.13 23.04.13
_ Max-Zeit 14:35 23:05 13:15 15:25 15:25 08:25 07:30 22:45 07:50 09:00 20:50 14:30 - 07:00 13:50 13:45 15:25 14:15
Maximum _ 25,6 C 22,2 C 28,9 C 29,4 C 29,4 C 9,3 C 92 % 94 % 100 % 1027,4 hPa 2,1 l/m 16,9 km/h
W-SW (3 Bft)
- 0,32 h 6,6 UV-I 12,3 C 29,4 C 28,8 km/h
W-SW (4 Bft)
Durchschnitt _ 12,4 C 19,1 C 13,2 C 13,9 C 13,8 C 1,6 C 72 % 74 % 34 % 1017,6 hPa #17,2 l/m 2,8 km/h (1 Bft) W-SW #36:47 h 1,7 UV-I 7,0 C 13,8 C 3,6 km/h (1 Bft)
2013 www.wetterstation-wechselburg.de